地図

経路データ

SID SEASON NUMBER BASIN SUBBASIN NAME ISO_TIME NATURE LAT LON WMO_WIND WMO_PRES WMO_AGENCY TRACK_TYPE DIST2LAND LANDFALL IFLAG USA_AGENCY USA_ATCF_ID USA_LAT USA_LON USA_RECORD USA_STATUS USA_WIND USA_PRES USA_SSHS USA_R34_NE USA_R34_SE USA_R34_SW USA_R34_NW USA_R50_NE USA_R50_SE USA_R50_SW USA_R50_NW USA_R64_NE USA_R64_SE USA_R64_SW USA_R64_NW USA_POCI USA_ROCI USA_RMW USA_EYE TOKYO_LAT TOKYO_LON TOKYO_GRADE TOKYO_WIND TOKYO_PRES TOKYO_R50_DIR TOKYO_R50_LONG TOKYO_R50_SHORT TOKYO_R30_DIR TOKYO_R30_LONG TOKYO_R30_SHORT TOKYO_LAND CMA_LAT CMA_LON CMA_CAT CMA_WIND CMA_PRES HKO_LAT HKO_LON HKO_CAT HKO_WIND HKO_PRES NEWDELHI_LAT NEWDELHI_LON NEWDELHI_GRADE NEWDELHI_WIND NEWDELHI_PRES NEWDELHI_CI NEWDELHI_DP NEWDELHI_POCI REUNION_LAT REUNION_LON REUNION_TYPE REUNION_WIND REUNION_PRES REUNION_TNUM REUNION_CI REUNION_RMW REUNION_R34_NE REUNION_R34_SE REUNION_R34_SW REUNION_R34_NW REUNION_R50_NE REUNION_R50_SE REUNION_R50_SW REUNION_R50_NW REUNION_R64_NE REUNION_R64_SE REUNION_R64_SW REUNION_R64_NW BOM_LAT BOM_LON BOM_TYPE BOM_WIND BOM_PRES BOM_TNUM BOM_CI BOM_RMW BOM_R34_NE BOM_R34_SE BOM_R34_SW BOM_R34_NW BOM_R50_NE BOM_R50_SE BOM_R50_SW BOM_R50_NW BOM_R64_NE BOM_R64_SE BOM_R64_SW BOM_R64_NW BOM_ROCI BOM_POCI BOM_EYE BOM_POS_METHOD BOM_PRES_METHOD NADI_LAT NADI_LON NADI_CAT NADI_WIND NADI_PRES WELLINGTON_LAT WELLINGTON_LON WELLINGTON_WIND WELLINGTON_PRES DS824_LAT DS824_LON DS824_STAGE DS824_WIND DS824_PRES TD9636_LAT TD9636_LON TD9636_STAGE TD9636_WIND TD9636_PRES TD9635_LAT TD9635_LON TD9635_WIND TD9635_PRES TD9635_ROCI NEUMANN_LAT NEUMANN_LON NEUMANN_CLASS NEUMANN_WIND NEUMANN_PRES MLC_LAT MLC_LON MLC_CLASS MLC_WIND MLC_PRES USA_GUST BOM_GUST BOM_GUST_PER REUNION_GUST REUNION_GUST_PER USA_SEAHGT USA_SEARAD_NE USA_SEARAD_SE USA_SEARAD_SW USA_SEARAD_NW STORM_SPEED STORM_DIR
1961053S12116 1961 24 SI WA NOT_NAMED 1961-02-21 23:00:00 NR -12.0000 116.200 main 336 336 __________O___ -1 -12.0000 116.200 1 1 0
1961053S12116 1961 24 SI WA NOT_NAMED 1961-02-22 00:00:00 TS -12.0074 116.186 main 336 336 _________OP___ -1 -12.0000 116.200 TC -12.0111 116.179 1 1 235
1961053S12116 1961 24 SI WA NOT_NAMED 1961-02-22 03:00:00 TS -12.0510 116.132 main 348 348 _________PP___ -1 -12.0625 116.150 TC -12.0433 116.120 1 1 235
1961053S12116 1961 24 SI WA NOT_NAMED 1961-02-22 06:00:00 TS -12.0836 116.080 main 348 348 _________OP___ -1 -12.1000 116.100 TC -12.0712 116.065 1 1 245
1961053S12116 1961 24 SI WA NOT_NAMED 1961-02-22 09:00:00 TS -12.0959 116.036 main 349 349 _________PP___ -1 -12.1000 116.050 TC -12.0919 116.022 1 1 257
1961053S12116 1961 24 SI WA NOT_NAMED 1961-02-22 11:00:00 TS -12.0985 116.008 main 349 349 _________PO___ -1 -12.0969 116.017 TC -12.1000 116.000 2 1 263
1961053S12116 1961 24 SI WA NOT_NAMED 1961-02-22 12:00:00 TS -12.1011 115.996 main 349 349 _________OP___ -1 -12.1000 116.000 TC -12.1022 115.992 2 1 238
1961053S12116 1961 24 SI WA NOT_NAMED 1961-02-22 15:00:00 TS -12.1280 115.961 main 349 349 _________PP___ -1 -12.1500 115.950 TC -12.1061 115.971 2 1 233
1961053S12116 1961 24 SI WA NOT_NAMED 1961-02-22 18:00:00 TS -12.1592 115.919 main 362 362 _________OP___ -1 -12.2000 115.900 TC -12.1184 115.939 2 1 242
1961053S12116 1961 24 SI WA NOT_NAMED 1961-02-22 21:00:00 TS -12.1698 115.877 main 362 362 _________PP___ -1 -12.1850 115.880 TC -12.1547 115.873 2 1 251
1961053S12116 1961 24 SI WA NOT_NAMED 1961-02-22 23:00:00 TS -12.1927 115.820 main 364 364 _________PO___ -1 -12.1855 115.839 TC -12.2000 115.800 1 2 245
1961053S12116 1961 24 SI WA NOT_NAMED 1961-02-23 00:00:00 TS -12.2136 115.774 main 364 364 _________OP___ -1 -12.2000 115.800 TC -12.2271 115.747 1 4 242
1961053S12116 1961 24 SI WA NOT_NAMED 1961-02-23 03:00:00 TS -12.3268 115.565 main 379 379 _________PP___ -1 -12.3200 115.580 TC -12.3335 115.550 1 5 239
1961053S12116 1961 24 SI WA NOT_NAMED 1961-02-23 06:00:00 TS -12.4886 115.307 main 410 410 _________OP___ -1 -12.5000 115.300 TC -12.4772 115.313 1 6 236
1961053S12116 1961 24 SI WA NOT_NAMED 1961-02-23 09:00:00 TS -12.6679 115.056 main 436 436 _________PP___ -1 -12.6775 115.050 TC -12.6584 115.063 1 6 232
1961053S12116 1961 24 SI WA NOT_NAMED 1961-02-23 11:00:00 TS -12.8096 114.892 main 448 448 _________PO___ -1 -12.8193 114.883 TC -12.8000 114.900 1 7 227
1961053S12116 1961 24 SI WA NOT_NAMED 1961-02-23 12:00:00 TS -12.8918 114.811 main 459 459 _________OP___ -1 -12.9000 114.800 TC -12.8835 114.821 1 7 221
1961053S12116 1961 24 SI WA NOT_NAMED 1961-02-23 15:00:00 TS -13.1826 114.558 main 492 492 _________PP___ -1 -13.2000 114.528 TC -13.1652 114.588 1 8 218
1961053S12116 1961 24 SI WA NOT_NAMED 1961-02-23 18:00:00 TS -13.4822 114.336 main 527 527 _________OP___ -1 -13.5000 114.300 TC -13.4644 114.371 1 7 213
1961053S12116 1961 24 SI WA NOT_NAMED 1961-02-23 21:00:00 TS -13.7368 114.180 main 550 550 _________PP___ -1 -13.7300 114.170 TC -13.7436 114.191 1 5 209
1961053S12116 1961 24 SI WA NOT_NAMED 1961-02-23 23:00:00 TS -13.8750 114.110 main 573 573 _________PO___ -1 -13.8500 114.120 TC -13.9000 114.100 1 4 206
1961053S12116 1961 24 SI WA NOT_NAMED 1961-02-24 00:00:00 TS -13.9284 114.084 main 573 573 _________OP___ -1 -13.9000 114.100 TC -13.9568 114.068 1 3 207
1961053S12116 1961 24 SI WA NOT_NAMED 1961-02-24 03:00:00 TS -14.0518 114.023 main 597 597 _________PP___ -1 -14.0150 114.035 TC -14.0885 114.011 1 2 202
1961053S12116 1961 24 SI WA NOT_NAMED 1961-02-24 06:00:00 TS -14.1398 113.998 main 597 597 _________OP___ -1 -14.1000 114.000 TC -14.1795 113.995 1 2 0
1961053S12116 1961 24 SI WA NOT_NAMED 1961-02-24 09:00:00 TS -14.2258 113.999 main 608 608 _________PP___ -1 -14.2000 114.000 TC -14.2517 113.998 1 2 0
1961053S12116 1961 24 SI WA NOT_NAMED 1961-02-24 11:00:00 TS -14.2833 114.002 main 619 619 _________PO___ -1 -14.2667 114.003 TC -14.3000 114.000 1 2 0
1961053S12116 1961 24 SI WA NOT_NAMED 1961-02-24 12:00:00 TS -14.3160 114.009 main 619 619 _________OP___ -1 -14.3000 114.000 TC -14.3320 114.019 1 2 173
1961053S12116 1961 24 SI WA NOT_NAMED 1961-02-24 15:00:00 TS -14.4136 114.018 main 630 630 _________PP___ -1 -14.4000 113.950 TC -14.4272 114.086 1 2 187
1961053S12116 1961 24 SI WA NOT_NAMED 1961-02-24 18:00:00 TS -14.5122 114.008 main 641 641 _________OP___ -1 -14.5000 113.900 TC -14.5244 114.116 1 2 188
1961053S12116 1961 24 SI WA NOT_NAMED 1961-02-24 21:00:00 TS -14.6096 114.008 main 652 652 _________PP___ -1 -14.5923 113.975 TC -14.6269 114.042 1 2 205
1961053S12116 1961 24 SI WA NOT_NAMED 1961-02-24 23:00:00 TS -14.6804 113.930 main 665 665 _________PO___ -1 -14.6608 113.960 TC -14.7000 113.900 1 4 234
1961053S12116 1961 24 SI WA NOT_NAMED 1961-02-25 00:00:00 TS -14.7236 113.842 main 666 666 _________OP___ -1 -14.7000 113.900 TC -14.7471 113.785 1 8 250
1961053S12116 1961 24 SI WA NOT_NAMED 1961-02-25 03:00:00 TS -14.8738 113.387 main 695 695 _________PP___ -1 -14.8501 113.455 TC -14.8975 113.319 1 11 254
1961053S12116 1961 24 SI WA NOT_NAMED 1961-02-25 06:00:00 TS -15.0208 112.760 main 721 721 _________OP___ -1 -15.0000 112.800 TC -15.0416 112.721 1 13 258
1961053S12116 1961 24 SI WA NOT_NAMED 1961-02-25 09:00:00 TS -15.1422 112.084 main 751 751 _________PP___ -1 -15.1300 112.115 TC -15.1543 112.053 1 13 261
1961053S12116 1961 24 SI WA NOT_NAMED 1961-02-25 11:00:00 TS -15.1932 111.618 main 761 761 _________PO___ -1 -15.1864 111.636 TC -15.2000 111.600 1 13 265
1961053S12116 1961 24 SI WA NOT_NAMED 1961-02-25 12:00:00 TS -15.2017 111.389 main 762 762 _________OP___ -1 -15.2000 111.400 TC -15.2033 111.377 1 13 271
1961053S12116 1961 24 SI WA NOT_NAMED 1961-02-25 15:00:00 TS -15.1728 110.712 main 769 761 _________PP___ -1 -15.1723 110.735 TC -15.1733 110.689 1 13 274
1961053S12116 1961 24 SI WA NOT_NAMED 1961-02-25 18:00:00 TS -15.1034 110.059 main 770 770 _________OP___ -1 -15.1000 110.100 TC -15.1069 110.018 1 12 276
1961053S12116 1961 24 SI WA NOT_NAMED 1961-02-25 21:00:00 TS -15.0389 109.428 main 774 774 _________PP___ -1 -15.0426 109.432 TC -15.0351 109.424 1 11 276
1961053S12116 1961 24 SI WA NOT_NAMED 1961-02-25 23:00:00 TS -15.0055 109.076 main 781 781 _________PO___ -1 -15.0110 109.052 TC -15.0000 109.100 2 10 275
1961053S12116 1961 24 SI WA NOT_NAMED 1961-02-26 00:00:00 TS -14.9959 108.935 main 786 786 _________OP___ -1 -15.0000 108.900 TC -14.9917 108.970 2 6 273
1961053S12116 1961 24 SI WA NOT_NAMED 1961-02-26 03:00:00 TS -14.9831 108.649 main 795 795 _________PP___ -1 -14.9847 108.625 TC -14.9814 108.672 2 4 270
1961053S12116 1961 24 SI WA NOT_NAMED 1961-02-26 06:00:00 TS -14.9988 108.491 main 798 798 _________OP___ -1 -15.0000 108.500 TC -14.9976 108.481 2 3 258
1961053S12116 1961 24 SI WA NOT_NAMED 1961-02-26 09:00:00 TS -15.0407 108.373 main 801 801 _________PP___ -1 -15.0350 108.385 TC -15.0465 108.360 2 2 243
1961053S12116 1961 24 SI WA NOT_NAMED 1961-02-26 11:00:00 TS -15.0875 108.314 main 815 815 _________PO___ -1 -15.0750 108.328 TC -15.1000 108.300 4 2 230
1961053S12116 1961 24 SI WA NOT_NAMED 1961-02-26 12:00:00 TS -15.1123 108.277 main 815 815 _________OP___ -1 -15.1000 108.300 TC -15.1246 108.253 4 3 233
1961053S12116 1961 24 SI WA NOT_NAMED 1961-02-26 15:00:00 TS -15.1962 108.166 main 829 829 _________PP___ -1 -15.1700 108.192 TC -15.2224 108.139 4 3 221
1961053S12116 1961 24 SI WA NOT_NAMED 1961-02-26 18:00:00 TS -15.3305 108.080 main 840 840 _________OP___ -1 -15.3000 108.100 TC -15.3611 108.060 4 4 202
1961053S12116 1961 24 SI WA NOT_NAMED 1961-02-26 21:00:00 TS -15.5297 108.021 main 863 863 _________PP___ -1 -15.5125 108.028 TC -15.5469 108.014 4 5 193
1961053S12116 1961 24 SI WA NOT_NAMED 1961-02-26 23:00:00 TS -15.6987 108.001 main 885 885 _________PO___ -1 -15.6974 108.003 TC -15.7000 108.000 2 5 0
1961053S12116 1961 24 SI WA NOT_NAMED 1961-02-27 00:00:00 TS -15.7930 107.997 main 896 896 _________OP___ -1 -15.8000 108.000 TC -15.7861 107.995 2 6 177
1961053S12116 1961 24 SI WA NOT_NAMED 1961-02-27 03:00:00 TS -16.1130 108.022 main 904 873 _________PP___ -1 -16.1425 108.042 TC -16.0835 108.002 2 7 174
1961053S12116 1961 24 SI WA NOT_NAMED 1961-02-27 06:00:00 TS -16.4600 108.066 main 865 841 _________OP___ -1 -16.5000 108.100 TC -16.4200 108.032 2 7 175
1961053S12116 1961 24 SI WA NOT_NAMED 1961-02-27 09:00:00 TS -16.7891 108.086 main 841 826 _________PP___ -1 -16.8075 108.100 TC -16.7707 108.073 2 7 176
1961053S12116 1961 24 SI WA NOT_NAMED 1961-02-27 11:00:00 TS -17.0013 108.098 main 826 818 _________PO___ -1 -17.0026 108.097 TC -17.0000 108.100 2 6 176
1961053S12116 1961 24 SI WA NOT_NAMED 1961-02-27 12:00:00 TS -17.0998 108.105 main 818 796 _________OP___ -1 -17.1000 108.100 TC -17.0997 108.111 2 6 176
1961053S12116 1961 24 SI WA NOT_NAMED 1961-02-27 15:00:00 TS -17.3958 108.147 main 796 767 _________PP___ -1 -17.4000 108.150 TC -17.3916 108.144 2 6 172
1961053S12116 1961 24 SI WA NOT_NAMED 1961-02-27 18:00:00 TS -17.6914 108.187 main 767 746 _________OP___ -1 -17.7000 108.200 TC -17.6827 108.174 2 6 175
1961053S12116 1961 24 SI WA NOT_NAMED 1961-02-27 21:00:00 TS -17.9852 108.205 main 746 733 _________PP___ -1 -17.9850 108.215 TC -17.9855 108.195 2 6 177
1961053S12116 1961 24 SI WA NOT_NAMED 1961-02-27 23:00:00 TS -18.1943 108.204 main 733 727 _________PO___ -1 -18.1886 108.208 TC -18.2000 108.200 2 7 0
1961053S12116 1961 24 SI WA NOT_NAMED 1961-02-28 00:00:00 TS -18.3099 108.199 main 727 702 _________OP___ -1 -18.3000 108.200 TC -18.3199 108.197 2 8 184
1961053S12116 1961 24 SI WA NOT_NAMED 1961-02-28 03:00:00 TS -18.6953 108.164 main 702 689 _________PP___ -1 -18.6925 108.150 TC -18.6980 108.177 2 8 185
1961053S12116 1961 24 SI WA NOT_NAMED 1961-02-28 06:00:00 TS -19.0935 108.124 main 689 673 _________OP___ -1 -19.1000 108.100 TC -19.0870 108.147 2 8 184
1961053S12116 1961 24 SI WA NOT_NAMED 1961-02-28 09:00:00 TS -19.4687 108.104 main 667 655 _________PP___ -1 -19.4725 108.092 TC -19.4650 108.116 2 7 181
1961053S12116 1961 24 SI WA NOT_NAMED 1961-02-28 11:00:00 TS -19.6987 108.099 main 655 650 _________PO___ -1 -19.6974 108.097 TC -19.7000 108.100 1 7 182
1961053S12116 1961 24 SI WA NOT_NAMED 1961-02-28 12:00:00 TS -19.8019 108.098 main 650 634 _________OP___ -1 -19.8000 108.100 TC -19.8038 108.097 1 6 184
1961053S12116 1961 24 SI WA NOT_NAMED 1961-02-28 15:00:00 TS -20.0752 108.096 main 634 624 _________PP___ -1 -20.0575 108.100 TC -20.0928 108.092 1 5 0
1961053S12116 1961 24 SI WA NOT_NAMED 1961-02-28 18:00:00 TS -20.3301 108.097 main 624 610 _________OP___ -1 -20.3000 108.100 TC -20.3601 108.093 1 5 178
1961053S12116 1961 24 SI WA NOT_NAMED 1961-02-28 21:00:00 TS -20.6070 108.099 main 610 602 _________PP___ -1 -20.5925 108.100 TC -20.6214 108.097 1 6 0
1961053S12116 1961 24 SI WA NOT_NAMED 1961-02-28 23:00:00 TS -20.7987 108.100 main 602 598 _________PO___ -1 -20.7974 108.100 TC -20.8000 108.100 1 6 178
1961053S12116 1961 24 SI WA NOT_NAMED 1961-03-01 00:00:00 TS -20.9002 108.101 main 598 588 _________OP___ -1 -20.9000 108.100 TC -20.9003 108.101 1 6 0
1961053S12116 1961 24 SI WA NOT_NAMED 1961-03-01 03:00:00 TS -21.2042 108.103 main 588 579 _________PP___ -1 -21.2000 108.100 TC -21.2084 108.105 1 6 177
1961053S12116 1961 24 SI WA NOT_NAMED 1961-03-01 06:00:00 TS -21.5086 108.104 main 579 573 _________OP___ -1 -21.5000 108.100 TC -21.5173 108.108 1 6 0
1961053S12116 1961 24 SI WA NOT_NAMED 1961-03-01 09:00:00 TS -21.8148 108.107 main 573 569 _________PP___ -1 -21.8150 108.107 TC -21.8145 108.106 1 6 182
1961053S12116 1961 24 SI WA NOT_NAMED 1961-03-01 11:00:00 TS -22.0057 108.103 main 569 568 _________PO___ -1 -22.0114 108.106 TC -22.0000 108.100 1 5 0
1961053S12116 1961 24 SI WA NOT_NAMED 1961-03-01 12:00:00 TS -22.0870 108.098 main 568 565 _________OP___ -1 -22.1000 108.100 TC -22.0740 108.095 1 4 188
1961053S12116 1961 24 SI WA NOT_NAMED 1961-03-01 15:00:00 TS -22.2912 108.062 main 565 565 _________PP___ -1 -22.3075 108.050 TC -22.2748 108.075 1 4 190
1961053S12116 1961 24 SI WA NOT_NAMED 1961-03-01 18:00:00 TS -22.4866 108.024 main 574 574 _________OP___ -1 -22.5000 108.000 TC -22.4732 108.048 1 4 188
1961053S12116 1961 24 SI WA NOT_NAMED 1961-03-01 21:00:00 TS -22.7095 108.010 main 574 571 _________PP___ -1 -22.7125 108.000 TC -22.7065 108.019 1 5 182
1961053S12116 1961 24 SI WA NOT_NAMED 1961-03-01 23:00:00 TS -22.8956 108.002 main 571 569 _________PO___ -1 -22.8912 108.003 TC -22.9000 108.000 1 6 0
1961053S12116 1961 24 SI WA NOT_NAMED 1961-03-02 00:00:00 TS -23.0087 107.995 main 569 559 _________OP___ -1 -23.0000 108.000 TC -23.0174 107.989 1 8 185
1961053S12116 1961 24 SI WA NOT_NAMED 1961-03-02 03:00:00 TS -23.4153 107.953 main 559 559 _________PP___ -1 -23.4125 107.950 TC -23.4181 107.956 1 9 185
1961053S12116 1961 24 SI WA NOT_NAMED 1961-03-02 06:00:00 TS -23.8873 107.913 main 560 556 _________OP___ -1 -23.9000 107.900 TC -23.8746 107.926 1 10 183
1961053S12116 1961 24 SI WA NOT_NAMED 1961-03-02 09:00:00 TS -24.3788 107.899 main 556 556 _________PP___ -1 -24.3925 107.892 TC -24.3650 107.905 1 10 0
1961053S12116 1961 24 SI WA NOT_NAMED 1961-03-02 11:00:00 TS -24.7154 107.899 main 556 556 _________PO___ -1 -24.7307 107.897 TC -24.7000 107.900 1 10 0
1961053S12116 1961 24 SI WA NOT_NAMED 1961-03-02 12:00:00 TS -24.8800 107.900 main 557 547 _________OP___ -1 -24.9000 107.900 TC -24.8600 107.899 1 10 0
1961053S12116 1961 24 SI WA NOT_NAMED 1961-03-02 15:00:00 TS -25.3754 107.900 main 545 540 _________PP___ -1 -25.4000 107.893 TC -25.3508 107.907 1 10 179
1961053S12116 1961 24 SI WA NOT_NAMED 1961-03-02 18:00:00 TS -25.8767 107.915 main 539 537 _________OP___ -1 -25.9000 107.900 TC -25.8534 107.929 1 10 177
1961053S12116 1961 24 SI WA NOT_NAMED 1961-03-02 21:00:00 TS -26.3807 107.951 main 527 527 _________PP___ -1 -26.4000 107.935 TC -26.3614 107.967 1 10 175
1961053S12116 1961 24 SI WA NOT_NAMED 1961-03-02 23:00:00 TS -26.7167 107.988 main 528 528 _________PO___ -1 -26.7333 107.975 TC -26.7000 108.000 2 10 174
1961053S12116 1961 24 SI WA NOT_NAMED 1961-03-03 00:00:00 TS -26.8827 108.007 main 530 525 _________OP___ -1 -26.9000 108.000 TC -26.8654 108.015 2 10 172
1961053S12116 1961 24 SI WA NOT_NAMED 1961-03-03 03:00:00 TS -27.3806 108.084 main 529 529 _________PP___ -1 -27.4000 108.100 TC -27.3612 108.068 2 10 172
1961053S12116 1961 24 SI WA NOT_NAMED 1961-03-03 06:00:00 TS -27.8793 108.169 main 534 534 _________OP___ -1 -27.9000 108.200 TC -27.8586 108.138 2 10 172
1961053S12116 1961 24 SI WA NOT_NAMED 1961-03-03 09:00:00 TS -28.3804 108.235 main 555 550 _________PP___ -1 -28.4000 108.243 TC -28.3609 108.228 2 10 173
1961053S12116 1961 24 SI WA NOT_NAMED 1961-03-03 11:00:00 TS -28.7167 108.287 main 560 560 _________PO___ -1 -28.7333 108.275 TC -28.7000 108.300 1 10 172
1961053S12116 1961 24 SI WA NOT_NAMED 1961-03-03 12:00:00 TS -28.8833 108.315 main 571 571 _________OP___ -1 -28.9000 108.300 TC -28.8666 108.331 1 10 169
1961053S12116 1961 24 SI WA NOT_NAMED 1961-03-03 15:00:00 TS -29.3813 108.431 main 583 576 _________PP___ -1 -29.3925 108.428 TC -29.3700 108.435 1 10 167
1961053S12116 1961 24 SI WA NOT_NAMED 1961-03-03 18:00:00 TS -29.8930 108.584 main 579 578 _________OP___ -1 -29.9000 108.600 TC -29.8860 108.569 1 11 165
1961053S12116 1961 24 SI WA NOT_NAMED 1961-03-03 21:00:00 TS -30.4296 108.763 main 582 582 _________PP___ -1 -30.4349 108.778 TC -30.4242 108.748 1 11 163
1961053S12116 1961 24 SI WA NOT_NAMED 1961-03-03 23:00:00 TS -30.8041 108.910 main 590 582 _________PO___ -1 -30.8083 108.920 TC -30.8000 108.900 1 12 161
1961053S12116 1961 24 SI WA NOT_NAMED 1961-03-04 00:00:00 TS -30.9981 108.993 main 584 565 _________OP___ -1 -31.0000 109.000 TC -30.9962 108.986 1 13 158
1961053S12116 1961 24 SI WA NOT_NAMED 1961-03-04 03:00:00 TS -31.5961 109.279 main 565 526 _________PP___ -1 -31.5849 109.270 TC -31.6073 109.287 1 13 156
1961053S12116 1961 24 SI WA NOT_NAMED 1961-03-04 06:00:00 TS -32.2199 109.620 main 526 472 _________OP___ -1 -32.2000 109.600 TC -32.2399 109.640 1 14 154
1961053S12116 1961 24 SI WA NOT_NAMED 1961-03-04 09:00:00 TS -32.8642 110.003 main 470 436 _________PP___ -1 -32.8499 109.978 TC -32.8785 110.029 1 15 153
1961053S12116 1961 24 SI WA NOT_NAMED 1961-03-04 11:00:00 TS -33.2932 110.278 main 436 425 _________PO___ -1 -33.2864 110.256 TC -33.3000 110.300 1 15 151
1961053S12116 1961 24 SI WA NOT_NAMED 1961-03-04 12:00:00 TS -33.5045 110.421 main 425 385 _________OP___ -1 -33.5000 110.400 TC -33.5079 110.437 1 14 150
1961053S12116 1961 24 SI WA NOT_NAMED 1961-03-04 15:00:00 TS -34.1178 110.851 main 376 345 _________PP___ -1 -34.1128 110.844 TC -34.1203 110.854 1 14 149
1961053S12116 1961 24 SI WA NOT_NAMED 1961-03-04 18:00:00 TS -34.7145 111.284 main 345 322 _________OP___ -1 -34.7000 111.300 TC -34.7194 111.278 1 14 149
1961053S12116 1961 24 SI WA NOT_NAMED 1961-03-04 21:00:00 NR -35.3094 111.709 main 325 311 __________P___ -1 TC -35.3094 111.709 1 14 149
1961053S12116 1961 24 SI WA NOT_NAMED 1961-03-04 23:00:00 NR -35.7000 112.000 main 316 __________O___ -1 TC -35.7000 112.000 1 14 149

IBTrACS Databaseについて

本データベースは、米国NOAAが公開する1842年以降の世界の熱帯低気圧のベストトラックデータアーカイブInternational Best Track Archive for Climate Stewardship (IBTrACS)を、ウェブで閲覧しやすい形式に変換したものです。

最終更新日:2021-10-08